sensor_id;sensor_type;location;lat;lon;timestamp;temperature;humidity
37974;DHT22;23796;51.458;7.000;2024-02-14T00:00:19;9.30;97.30
37974;DHT22;23796;51.458;7.000;2024-02-14T00:02:46;9.30;97.60
37974;DHT22;23796;51.458;7.000;2024-02-14T00:05:15;9.30;97.90
37974;DHT22;23796;51.458;7.000;2024-02-14T00:07:41;9.30;98.00
37974;DHT22;23796;51.458;7.000;2024-02-14T00:10:07;9.20;98.30
37974;DHT22;23796;51.458;7.000;2024-02-14T00:12:33;9.20;98.60
37974;DHT22;23796;51.458;7.000;2024-02-14T00:14:59;9.20;98.60
37974;DHT22;23796;51.458;7.000;2024-02-14T00:17:25;9.20;98.80
37974;DHT22;23796;51.458;7.000;2024-02-14T00:19:50;9.10;99.40
37974;DHT22;23796;51.458;7.000;2024-02-14T00:22:18;9.00;99.90
37974;DHT22;23796;51.458;7.000;2024-02-14T00:24:44;9.00;99.90
37974;DHT22;23796;51.458;7.000;2024-02-14T00:27:10;8.90;99.90
37974;DHT22;23796;51.458;7.000;2024-02-14T00:29:35;8.90;99.90
37974;DHT22;23796;51.458;7.000;2024-02-14T00:32:01;8.90;99.90
37974;DHT22;23796;51.458;7.000;2024-02-14T00:34:27;8.90;99.90
37974;DHT22;23796;51.458;7.000;2024-02-14T00:36:55;9.00;99.90
37974;DHT22;23796;51.458;7.000;2024-02-14T00:39:20;9.00;99.90
37974;DHT22;23796;51.458;7.000;2024-02-14T00:41:47;8.90;99.90
37974;DHT22;23796;51.458;7.000;2024-02-14T00:44:13;8.90;99.90
37974;DHT22;23796;51.458;7.000;2024-02-14T00:46:42;8.90;99.90
37974;DHT22;23796;51.458;7.000;2024-02-14T00:49:09;8.90;99.90
37974;DHT22;23796;51.458;7.000;2024-02-14T00:51:35;8.90;99.90
37974;DHT22;23796;51.458;7.000;2024-02-14T00:54:05;8.80;99.90
37974;DHT22;23796;51.458;7.000;2024-02-14T00:56:31;8.80;99.90
37974;DHT22;23796;51.458;7.000;2024-02-14T00:58:56;8.80;99.90
37974;DHT22;23796;51.458;7.000;2024-02-14T01:01:22;8.80;99.90
37974;DHT22;23796;51.458;7.000;2024-02-14T01:03:48;8.80;99.90
37974;DHT22;23796;51.458;7.000;2024-02-14T01:06:14;8.70;99.90
37974;DHT22;23796;51.458;7.000;2024-02-14T01:08:41;8.70;99.90
37974;DHT22;23796;51.458;7.000;2024-02-14T01:11:09;8.70;99.90
37974;DHT22;23796;51.458;7.000;2024-02-14T01:13:35;8.70;99.90
37974;DHT22;23796;51.458;7.000;2024-02-14T01:16:03;8.70;99.90
37974;DHT22;23796;51.458;7.000;2024-02-14T01:18:30;8.70;99.90
37974;DHT22;23796;51.458;7.000;2024-02-14T01:20:56;8.70;99.90
37974;DHT22;23796;51.458;7.000;2024-02-14T01:23:26;8.70;99.90
37974;DHT22;23796;51.458;7.000;2024-02-14T01:25:51;8.70;99.90
37974;DHT22;23796;51.458;7.000;2024-02-14T01:28:20;8.70;99.90
37974;DHT22;23796;51.458;7.000;2024-02-14T01:30:45;8.70;99.90
37974;DHT22;23796;51.458;7.000;2024-02-14T01:33:11;8.80;99.90
37974;DHT22;23796;51.458;7.000;2024-02-14T01:35:36;8.80;99.90
37974;DHT22;23796;51.458;7.000;2024-02-14T01:38:02;8.80;99.90
37974;DHT22;23796;51.458;7.000;2024-02-14T01:40:31;8.80;99.90
37974;DHT22;23796;51.458;7.000;2024-02-14T01:42:57;8.80;99.90
37974;DHT22;23796;51.458;7.000;2024-02-14T01:45:26;8.80;99.90
37974;DHT22;23796;51.458;7.000;2024-02-14T01:47:52;8.80;99.90
37974;DHT22;23796;51.458;7.000;2024-02-14T01:50:18;8.80;99.90
37974;DHT22;23796;51.458;7.000;2024-02-14T01:52:51;8.80;99.90
37974;DHT22;23796;51.458;7.000;2024-02-14T01:55:17;8.80;99.90
37974;DHT22;23796;51.458;7.000;2024-02-14T01:57:42;8.80;99.90
37974;DHT22;23796;51.458;7.000;2024-02-14T02:00:08;8.90;99.90
37974;DHT22;23796;51.458;7.000;2024-02-14T02:02:36;8.90;99.90
37974;DHT22;23796;51.458;7.000;2024-02-14T02:05:03;8.90;99.90
37974;DHT22;23796;51.458;7.000;2024-02-14T02:07:29;9.00;99.90
37974;DHT22;23796;51.458;7.000;2024-02-14T02:09:55;9.00;99.90
37974;DHT22;23796;51.458;7.000;2024-02-14T02:12:23;9.00;99.90
37974;DHT22;23796;51.458;7.000;2024-02-14T02:14:50;9.00;99.90
37974;DHT22;23796;51.458;7.000;2024-02-14T02:17:16;9.00;99.90
37974;DHT22;23796;51.458;7.000;2024-02-14T02:19:43;9.10;99.90
37974;DHT22;23796;51.458;7.000;2024-02-14T02:22:09;9.10;99.90
37974;DHT22;23796;51.458;7.000;2024-02-14T02:24:35;9.10;99.90
37974;DHT22;23796;51.458;7.000;2024-02-14T02:27:04;9.10;99.90
37974;DHT22;23796;51.458;7.000;2024-02-14T02:29:30;9.20;99.90
37974;DHT22;23796;51.458;7.000;2024-02-14T02:31:58;9.20;99.90
37974;DHT22;23796;51.458;7.000;2024-02-14T02:34:25;9.20;99.90
37974;DHT22;23796;51.458;7.000;2024-02-14T02:36:51;9.20;99.90
37974;DHT22;23796;51.458;7.000;2024-02-14T02:39:17;9.30;99.90
37974;DHT22;23796;51.458;7.000;2024-02-14T02:41:45;9.30;99.90
37974;DHT22;23796;51.458;7.000;2024-02-14T02:44:14;9.30;99.90
37974;DHT22;23796;51.458;7.000;2024-02-14T02:46:39;9.30;99.90
37974;DHT22;23796;51.458;7.000;2024-02-14T02:49:05;9.30;99.90
37974;DHT22;23796;51.458;7.000;2024-02-14T02:51:30;9.30;99.90
37974;DHT22;23796;51.458;7.000;2024-02-14T02:53:56;9.30;99.90
37974;DHT22;23796;51.458;7.000;2024-02-14T02:56:22;9.40;99.90
37974;DHT22;23796;51.458;7.000;2024-02-14T02:58:53;9.40;99.90
37974;DHT22;23796;51.458;7.000;2024-02-14T03:01:19;9.50;99.90
37974;DHT22;23796;51.458;7.000;2024-02-14T03:03:45;9.50;99.90
37974;DHT22;23796;51.458;7.000;2024-02-14T03:06:10;9.50;99.90
37974;DHT22;23796;51.458;7.000;2024-02-14T03:08:37;9.50;99.90
37974;DHT22;23796;51.458;7.000;2024-02-14T03:11:07;9.50;99.90
37974;DHT22;23796;51.458;7.000;2024-02-14T03:13:33;9.50;99.90
37974;DHT22;23796;51.458;7.000;2024-02-14T03:16:00;9.50;99.90
37974;DHT22;23796;51.458;7.000;2024-02-14T03:18:25;9.50;99.90
37974;DHT22;23796;51.458;7.000;2024-02-14T03:20:51;9.50;99.90
37974;DHT22;23796;51.458;7.000;2024-02-14T03:23:19;9.50;99.90
37974;DHT22;23796;51.458;7.000;2024-02-14T03:25:44;9.50;99.90
37974;DHT22;23796;51.458;7.000;2024-02-14T03:28:13;9.50;99.90
37974;DHT22;23796;51.458;7.000;2024-02-14T03:30:40;9.60;99.90
37974;DHT22;23796;51.458;7.000;2024-02-14T03:33:08;9.60;99.90
37974;DHT22;23796;51.458;7.000;2024-02-14T03:35:34;9.60;99.90
37974;DHT22;23796;51.458;7.000;2024-02-14T03:38:01;9.60;99.90
37974;DHT22;23796;51.458;7.000;2024-02-14T03:40:29;9.60;99.90
37974;DHT22;23796;51.458;7.000;2024-02-14T03:42:56;9.60;99.90
37974;DHT22;23796;51.458;7.000;2024-02-14T03:45:24;9.50;99.90
37974;DHT22;23796;51.458;7.000;2024-02-14T03:47:55;9.50;99.90
37974;DHT22;23796;51.458;7.000;2024-02-14T03:50:22;9.60;99.90
37974;DHT22;23796;51.458;7.000;2024-02-14T03:52:47;9.50;99.90
37974;DHT22;23796;51.458;7.000;2024-02-14T03:55:14;9.50;99.90
37974;DHT22;23796;51.458;7.000;2024-02-14T03:57:42;9.50;99.90
37974;DHT22;23796;51.458;7.000;2024-02-14T04:00:13;9.60;99.90
37974;DHT22;23796;51.458;7.000;2024-02-14T04:02:39;9.60;99.90
37974;DHT22;23796;51.458;7.000;2024-02-14T04:05:05;9.60;99.90
37974;DHT22;23796;51.458;7.000;2024-02-14T04:07:32;9.60;99.90
37974;DHT22;23796;51.458;7.000;2024-02-14T04:10:00;9.60;99.90
37974;DHT22;23796;51.458;7.000;2024-02-14T04:12:26;9.60;99.90
37974;DHT22;23796;51.458;7.000;2024-02-14T04:14:51;9.60;99.90
37974;DHT22;23796;51.458;7.000;2024-02-14T04:17:17;9.70;99.90
37974;DHT22;23796;51.458;7.000;2024-02-14T04:19:42;9.70;99.90
37974;DHT22;23796;51.458;7.000;2024-02-14T04:22:10;9.60;99.90
37974;DHT22;23796;51.458;7.000;2024-02-14T04:24:38;9.70;99.90
37974;DHT22;23796;51.458;7.000;2024-02-14T04:27:04;9.70;99.90
37974;DHT22;23796;51.458;7.000;2024-02-14T04:29:30;9.70;99.90
37974;DHT22;23796;51.458;7.000;2024-02-14T04:31:59;9.80;99.90
37974;DHT22;23796;51.458;7.000;2024-02-14T04:34:25;9.80;99.90
37974;DHT22;23796;51.458;7.000;2024-02-14T04:36:51;9.90;99.90
37974;DHT22;23796;51.458;7.000;2024-02-14T04:39:17;9.90;99.90
37974;DHT22;23796;51.458;7.000;2024-02-14T04:41:43;9.90;99.90
37974;DHT22;23796;51.458;7.000;2024-02-14T04:44:08;10.00;99.90
37974;DHT22;23796;51.458;7.000;2024-02-14T04:46:34;10.00;99.90
37974;DHT22;23796;51.458;7.000;2024-02-14T04:49:02;10.00;99.90
37974;DHT22;23796;51.458;7.000;2024-02-14T04:51:30;10.00;99.90
37974;DHT22;23796;51.458;7.000;2024-02-14T04:53:57;10.10;99.90
37974;DHT22;23796;51.458;7.000;2024-02-14T04:56:26;10.00;99.90
37974;DHT22;23796;51.458;7.000;2024-02-14T04:58:53;10.00;99.90
37974;DHT22;23796;51.458;7.000;2024-02-14T05:01:21;10.10;99.90
37974;DHT22;23796;51.458;7.000;2024-02-14T05:03:47;10.10;99.90
37974;DHT22;23796;51.458;7.000;2024-02-14T05:06:14;10.10;99.90
37974;DHT22;23796;51.458;7.000;2024-02-14T05:08:39;10.10;99.90
37974;DHT22;23796;51.458;7.000;2024-02-14T05:11:05;10.10;99.90
37974;DHT22;23796;51.458;7.000;2024-02-14T05:13:31;10.10;99.90
37974;DHT22;23796;51.458;7.000;2024-02-14T05:15:56;10.20;99.90
37974;DHT22;23796;51.458;7.000;2024-02-14T05:18:24;10.20;99.90
37974;DHT22;23796;51.458;7.000;2024-02-14T05:20:50;10.20;99.90
37974;DHT22;23796;51.458;7.000;2024-02-14T05:23:16;10.20;99.90
37974;DHT22;23796;51.458;7.000;2024-02-14T05:25:43;10.20;99.90
37974;DHT22;23796;51.458;7.000;2024-02-14T05:28:11;10.20;99.90
37974;DHT22;23796;51.458;7.000;2024-02-14T05:30:41;10.20;99.90
37974;DHT22;23796;51.458;7.000;2024-02-14T05:33:09;10.20;99.90
37974;DHT22;23796;51.458;7.000;2024-02-14T05:35:37;10.20;99.90
37974;DHT22;23796;51.458;7.000;2024-02-14T05:38:02;10.20;99.90
37974;DHT22;23796;51.458;7.000;2024-02-14T05:40:33;10.20;99.90
37974;DHT22;23796;51.458;7.000;2024-02-14T05:42:58;10.20;99.90
37974;DHT22;23796;51.458;7.000;2024-02-14T05:45:24;10.20;99.90
37974;DHT22;23796;51.458;7.000;2024-02-14T05:47:50;10.20;99.90
37974;DHT22;23796;51.458;7.000;2024-02-14T05:50:15;10.20;99.90
37974;DHT22;23796;51.458;7.000;2024-02-14T05:52:41;10.20;99.90
37974;DHT22;23796;51.458;7.000;2024-02-14T05:55:07;10.30;99.90
37974;DHT22;23796;51.458;7.000;2024-02-14T05:57:34;10.20;99.90
37974;DHT22;23796;51.458;7.000;2024-02-14T06:00:00;10.20;99.90
37974;DHT22;23796;51.458;7.000;2024-02-14T06:02:25;10.20;99.90
37974;DHT22;23796;51.458;7.000;2024-02-14T06:04:53;10.20;99.90
37974;DHT22;23796;51.458;7.000;2024-02-14T06:07:19;10.20;99.90
37974;DHT22;23796;51.458;7.000;2024-02-14T06:09:44;10.30;99.90
37974;DHT22;23796;51.458;7.000;2024-02-14T06:12:11;10.30;99.90
37974;DHT22;23796;51.458;7.000;2024-02-14T06:14:36;10.30;99.90
37974;DHT22;23796;51.458;7.000;2024-02-14T06:17:02;10.30;99.90
37974;DHT22;23796;51.458;7.000;2024-02-14T06:19:28;10.20;99.90
37974;DHT22;23796;51.458;7.000;2024-02-14T06:21:53;10.30;99.90
37974;DHT22;23796;51.458;7.000;2024-02-14T06:24:19;10.30;99.90
37974;DHT22;23796;51.458;7.000;2024-02-14T06:26:45;10.30;99.90
37974;DHT22;23796;51.458;7.000;2024-02-14T06:29:11;10.30;99.90
37974;DHT22;23796;51.458;7.000;2024-02-14T06:31:37;10.30;99.90
37974;DHT22;23796;51.458;7.000;2024-02-14T06:34:02;10.30;99.90
37974;DHT22;23796;51.458;7.000;2024-02-14T06:36:28;10.30;99.90
37974;DHT22;23796;51.458;7.000;2024-02-14T06:38:56;10.40;99.90
37974;DHT22;23796;51.458;7.000;2024-02-14T06:41:21;10.40;99.90
37974;DHT22;23796;51.458;7.000;2024-02-14T06:43:48;10.40;99.90
37974;DHT22;23796;51.458;7.000;2024-02-14T06:46:14;10.30;99.90
37974;DHT22;23796;51.458;7.000;2024-02-14T06:48:40;10.30;99.90
37974;DHT22;23796;51.458;7.000;2024-02-14T06:51:08;10.40;99.90
37974;DHT22;23796;51.458;7.000;2024-02-14T06:53:33;10.40;99.90
37974;DHT22;23796;51.458;7.000;2024-02-14T06:55:59;10.40;99.90
37974;DHT22;23796;51.458;7.000;2024-02-14T06:58:25;10.40;99.90
37974;DHT22;23796;51.458;7.000;2024-02-14T07:00:51;10.40;99.90
37974;DHT22;23796;51.458;7.000;2024-02-14T07:03:16;10.50;99.90
37974;DHT22;23796;51.458;7.000;2024-02-14T07:05:42;10.40;99.90
37974;DHT22;23796;51.458;7.000;2024-02-14T07:08:08;10.50;99.90
37974;DHT22;23796;51.458;7.000;2024-02-14T07:10:33;10.50;99.90
37974;DHT22;23796;51.458;7.000;2024-02-14T07:12:59;10.50;99.90
37974;DHT22;23796;51.458;7.000;2024-02-14T07:15:25;10.50;99.90
37974;DHT22;23796;51.458;7.000;2024-02-14T07:17:54;10.50;99.90
37974;DHT22;23796;51.458;7.000;2024-02-14T07:20:21;10.50;99.90
37974;DHT22;23796;51.458;7.000;2024-02-14T07:22:46;10.50;99.90
37974;DHT22;23796;51.458;7.000;2024-02-14T07:25:18;10.50;99.90
37974;DHT22;23796;51.458;7.000;2024-02-14T07:27:45;10.50;99.90
37974;DHT22;23796;51.458;7.000;2024-02-14T07:30:14;10.50;99.90
37974;DHT22;23796;51.458;7.000;2024-02-14T07:32:39;10.50;99.90
37974;DHT22;23796;51.458;7.000;2024-02-14T07:35:05;10.60;99.90
37974;DHT22;23796;51.458;7.000;2024-02-14T07:37:32;10.60;99.90
37974;DHT22;23796;51.458;7.000;2024-02-14T07:39:58;10.60;99.90
37974;DHT22;23796;51.458;7.000;2024-02-14T07:42:24;10.60;99.90
37974;DHT22;23796;51.458;7.000;2024-02-14T07:44:52;10.60;99.90
37974;DHT22;23796;51.458;7.000;2024-02-14T07:47:19;10.60;99.90
37974;DHT22;23796;51.458;7.000;2024-02-14T07:49:47;10.60;99.90
37974;DHT22;23796;51.458;7.000;2024-02-14T07:52:18;10.50;99.90
37974;DHT22;23796;51.458;7.000;2024-02-14T07:54:43;10.50;99.90
37974;DHT22;23796;51.458;7.000;2024-02-14T07:57:09;10.60;99.90
37974;DHT22;23796;51.458;7.000;2024-02-14T07:59:35;10.60;99.90
37974;DHT22;23796;51.458;7.000;2024-02-14T08:02:00;10.60;99.90
37974;DHT22;23796;51.458;7.000;2024-02-14T08:04:26;10.70;99.90
37974;DHT22;23796;51.458;7.000;2024-02-14T08:06:51;10.70;99.90
37974;DHT22;23796;51.458;7.000;2024-02-14T08:09:19;10.70;99.90
37974;DHT22;23796;51.458;7.000;2024-02-14T08:11:45;10.80;99.90
37974;DHT22;23796;51.458;7.000;2024-02-14T08:14:10;10.80;99.90
37974;DHT22;23796;51.458;7.000;2024-02-14T08:16:37;10.80;99.90
37974;DHT22;23796;51.458;7.000;2024-02-14T08:19:03;10.90;99.90
37974;DHT22;23796;51.458;7.000;2024-02-14T08:21:29;10.90;99.90
37974;DHT22;23796;51.458;7.000;2024-02-14T08:23:55;11.00;99.90
37974;DHT22;23796;51.458;7.000;2024-02-14T08:26:23;11.10;99.90
37974;DHT22;23796;51.458;7.000;2024-02-14T08:28:49;11.10;99.90
37974;DHT22;23796;51.458;7.000;2024-02-14T08:31:15;11.20;99.90
37974;DHT22;23796;51.458;7.000;2024-02-14T08:33:41;11.20;99.90
37974;DHT22;23796;51.458;7.000;2024-02-14T08:36:09;11.30;99.90
37974;DHT22;23796;51.458;7.000;2024-02-14T08:38:35;11.30;99.90
37974;DHT22;23796;51.458;7.000;2024-02-14T08:41:04;11.40;99.90
37974;DHT22;23796;51.458;7.000;2024-02-14T08:43:30;11.30;99.90
37974;DHT22;23796;51.458;7.000;2024-02-14T08:45:58;11.40;99.90
37974;DHT22;23796;51.458;7.000;2024-02-14T08:48:24;11.50;99.90
37974;DHT22;23796;51.458;7.000;2024-02-14T08:50:52;11.50;99.90
37974;DHT22;23796;51.458;7.000;2024-02-14T08:53:18;11.60;99.90
37974;DHT22;23796;51.458;7.000;2024-02-14T08:55:44;11.60;99.90
37974;DHT22;23796;51.458;7.000;2024-02-14T08:58:09;11.60;99.90
37974;DHT22;23796;51.458;7.000;2024-02-14T09:00:38;11.60;99.90
37974;DHT22;23796;51.458;7.000;2024-02-14T09:03:05;11.50;99.90
37974;DHT22;23796;51.458;7.000;2024-02-14T09:05:31;11.60;99.90
37974;DHT22;23796;51.458;7.000;2024-02-14T09:07:57;11.70;99.90
37974;DHT22;23796;51.458;7.000;2024-02-14T09:10:25;11.70;99.90
37974;DHT22;23796;51.458;7.000;2024-02-14T09:12:51;11.70;99.90
37974;DHT22;23796;51.458;7.000;2024-02-14T09:15:16;11.80;99.90
37974;DHT22;23796;51.458;7.000;2024-02-14T09:17:42;11.90;99.90
37974;DHT22;23796;51.458;7.000;2024-02-14T09:20:08;11.90;99.90
37974;DHT22;23796;51.458;7.000;2024-02-14T09:22:40;11.80;99.90
37974;DHT22;23796;51.458;7.000;2024-02-14T09:25:08;11.80;99.90
37974;DHT22;23796;51.458;7.000;2024-02-14T09:27:35;11.80;99.90
37974;DHT22;23796;51.458;7.000;2024-02-14T09:30:01;11.70;99.90
37974;DHT22;23796;51.458;7.000;2024-02-14T09:32:30;11.70;99.90
37974;DHT22;23796;51.458;7.000;2024-02-14T09:34:55;11.60;99.90
37974;DHT22;23796;51.458;7.000;2024-02-14T09:37:22;11.60;99.90
37974;DHT22;23796;51.458;7.000;2024-02-14T09:39:49;11.70;99.90
37974;DHT22;23796;51.458;7.000;2024-02-14T09:42:16;11.70;99.90
37974;DHT22;23796;51.458;7.000;2024-02-14T09:44:43;11.80;99.90
37974;DHT22;23796;51.458;7.000;2024-02-14T09:47:14;11.90;99.90
37974;DHT22;23796;51.458;7.000;2024-02-14T09:49:40;11.80;99.90
37974;DHT22;23796;51.458;7.000;2024-02-14T09:52:08;11.80;99.90
37974;DHT22;23796;51.458;7.000;2024-02-14T09:54:38;11.90;99.90
37974;DHT22;23796;51.458;7.000;2024-02-14T09:57:04;11.90;99.90
37974;DHT22;23796;51.458;7.000;2024-02-14T09:59:34;11.90;99.90
37974;DHT22;23796;51.458;7.000;2024-02-14T10:02:03;12.00;99.90
37974;DHT22;23796;51.458;7.000;2024-02-14T10:04:28;12.10;99.90
37974;DHT22;23796;51.458;7.000;2024-02-14T10:06:54;12.20;99.90
37974;DHT22;23796;51.458;7.000;2024-02-14T10:09:23;12.20;99.90
37974;DHT22;23796;51.458;7.000;2024-02-14T10:11:49;12.30;99.90
37974;DHT22;23796;51.458;7.000;2024-02-14T10:14:15;12.30;99.90
37974;DHT22;23796;51.458;7.000;2024-02-14T10:16:43;12.30;99.90
37974;DHT22;23796;51.458;7.000;2024-02-14T10:19:20;12.30;99.90
37974;DHT22;23796;51.458;7.000;2024-02-14T10:21:58;12.40;99.90
37974;DHT22;23796;51.458;7.000;2024-02-14T10:24:28;12.50;99.90
37974;DHT22;23796;51.458;7.000;2024-02-14T10:26:54;12.50;99.90
37974;DHT22;23796;51.458;7.000;2024-02-14T10:29:23;12.50;99.90
37974;DHT22;23796;51.458;7.000;2024-02-14T10:31:52;12.60;99.90
37974;DHT22;23796;51.458;7.000;2024-02-14T10:34:26;12.50;99.90
37974;DHT22;23796;51.458;7.000;2024-02-14T10:36:53;12.40;99.90
37974;DHT22;23796;51.458;7.000;2024-02-14T10:39:21;12.20;99.90
37974;DHT22;23796;51.458;7.000;2024-02-14T10:41:50;12.20;99.90
37974;DHT22;23796;51.458;7.000;2024-02-14T10:44:16;12.20;99.90
37974;DHT22;23796;51.458;7.000;2024-02-14T10:46:42;12.20;99.90
37974;DHT22;23796;51.458;7.000;2024-02-14T10:49:10;12.20;99.90
37974;DHT22;23796;51.458;7.000;2024-02-14T10:51:38;12.20;99.90
37974;DHT22;23796;51.458;7.000;2024-02-14T10:54:11;12.20;99.90
37974;DHT22;23796;51.458;7.000;2024-02-14T10:56:40;12.20;99.90
37974;DHT22;23796;51.458;7.000;2024-02-14T10:59:09;12.20;99.90
37974;DHT22;23796;51.458;7.000;2024-02-14T11:01:39;12.30;99.90
37974;DHT22;23796;51.458;7.000;2024-02-14T11:04:06;12.30;99.90
37974;DHT22;23796;51.458;7.000;2024-02-14T11:06:32;12.30;99.90
37974;DHT22;23796;51.458;7.000;2024-02-14T11:09:03;12.20;99.90
37974;DHT22;23796;51.458;7.000;2024-02-14T11:11:33;12.20;99.90
37974;DHT22;23796;51.458;7.000;2024-02-14T11:13:59;12.20;99.90
37974;DHT22;23796;51.458;7.000;2024-02-14T11:16:27;12.30;99.90
37974;DHT22;23796;51.458;7.000;2024-02-14T11:19:05;12.40;99.90
37974;DHT22;23796;51.458;7.000;2024-02-14T11:21:35;12.40;99.90
37974;DHT22;23796;51.458;7.000;2024-02-14T11:24:06;12.40;99.90
37974;DHT22;23796;51.458;7.000;2024-02-14T11:29:06;12.50;99.90
37974;DHT22;23796;51.458;7.000;2024-02-14T11:31:33;12.50;99.90
37974;DHT22;23796;51.458;7.000;2024-02-14T11:34:07;12.60;99.90
37974;DHT22;23796;51.458;7.000;2024-02-14T11:36:35;12.60;99.90
37974;DHT22;23796;51.458;7.000;2024-02-14T11:39:04;12.60;99.90
37974;DHT22;23796;51.458;7.000;2024-02-14T11:41:33;12.70;99.90
37974;DHT22;23796;51.458;7.000;2024-02-14T11:44:04;12.80;99.90
37974;DHT22;23796;51.458;7.000;2024-02-14T11:46:31;12.90;99.90
37974;DHT22;23796;51.458;7.000;2024-02-14T11:49:01;12.90;99.90
37974;DHT22;23796;51.458;7.000;2024-02-14T11:51:32;13.00;99.90
37974;DHT22;23796;51.458;7.000;2024-02-14T11:53:59;13.10;99.90
37974;DHT22;23796;51.458;7.000;2024-02-14T11:56:36;13.00;99.90
37974;DHT22;23796;51.458;7.000;2024-02-14T11:59:06;13.10;99.90
37974;DHT22;23796;51.458;7.000;2024-02-14T12:01:35;13.10;99.90
37974;DHT22;23796;51.458;7.000;2024-02-14T12:04:03;13.20;99.90
37974;DHT22;23796;51.458;7.000;2024-02-14T12:06:31;13.20;99.90
37974;DHT22;23796;51.458;7.000;2024-02-14T12:08:57;13.30;99.90
37974;DHT22;23796;51.458;7.000;2024-02-14T12:11:30;13.40;99.90
37974;DHT22;23796;51.458;7.000;2024-02-14T12:14:03;13.50;99.90
37974;DHT22;23796;51.458;7.000;2024-02-14T12:16:31;13.50;99.90
37974;DHT22;23796;51.458;7.000;2024-02-14T12:21:36;13.50;99.90
37974;DHT22;23796;51.458;7.000;2024-02-14T12:24:04;13.60;99.90
37974;DHT22;23796;51.458;7.000;2024-02-14T12:26:32;13.50;99.90
37974;DHT22;23796;51.458;7.000;2024-02-14T12:28:58;13.50;99.90
37974;DHT22;23796;51.458;7.000;2024-02-14T12:31:26;13.40;99.90
37974;DHT22;23796;51.458;7.000;2024-02-14T12:33:54;13.30;99.90
37974;DHT22;23796;51.458;7.000;2024-02-14T12:36:21;13.30;99.90
37974;DHT22;23796;51.458;7.000;2024-02-14T12:38:46;13.20;99.90
37974;DHT22;23796;51.458;7.000;2024-02-14T12:41:12;13.30;99.90
37974;DHT22;23796;51.458;7.000;2024-02-14T12:43:38;13.30;99.90
37974;DHT22;23796;51.458;7.000;2024-02-14T12:46:03;13.10;99.90
37974;DHT22;23796;51.458;7.000;2024-02-14T12:48:31;13.10;99.90
37974;DHT22;23796;51.458;7.000;2024-02-14T12:50:57;13.10;99.90
37974;DHT22;23796;51.458;7.000;2024-02-14T12:53:25;13.10;99.90
37974;DHT22;23796;51.458;7.000;2024-02-14T12:55:53;13.10;99.90
37974;DHT22;23796;51.458;7.000;2024-02-14T12:58:19;13.10;99.90
37974;DHT22;23796;51.458;7.000;2024-02-14T13:00:44;13.10;99.90
37974;DHT22;23796;51.458;7.000;2024-02-14T13:03:11;13.10;99.90
37974;DHT22;23796;51.458;7.000;2024-02-14T13:05:37;13.10;99.90
37974;DHT22;23796;51.458;7.000;2024-02-14T13:08:03;13.00;99.90
37974;DHT22;23796;51.458;7.000;2024-02-14T13:10:29;12.90;99.90
37974;DHT22;23796;51.458;7.000;2024-02-14T13:12:57;13.00;99.90
37974;DHT22;23796;51.458;7.000;2024-02-14T13:15:22;13.00;99.90
37974;DHT22;23796;51.458;7.000;2024-02-14T13:17:48;12.90;99.90
37974;DHT22;23796;51.458;7.000;2024-02-14T13:20:14;12.90;99.90
37974;DHT22;23796;51.458;7.000;2024-02-14T13:22:41;12.90;99.90
37974;DHT22;23796;51.458;7.000;2024-02-14T13:25:08;12.90;99.90
37974;DHT22;23796;51.458;7.000;2024-02-14T13:27:38;13.00;99.90
37974;DHT22;23796;51.458;7.000;2024-02-14T13:30:05;13.10;99.90
37974;DHT22;23796;51.458;7.000;2024-02-14T13:32:32;13.00;99.90
37974;DHT22;23796;51.458;7.000;2024-02-14T13:34:58;13.00;99.90
37974;DHT22;23796;51.458;7.000;2024-02-14T13:37:24;13.10;99.90
37974;DHT22;23796;51.458;7.000;2024-02-14T13:39:50;13.00;99.90
37974;DHT22;23796;51.458;7.000;2024-02-14T13:42:16;13.00;99.90
37974;DHT22;23796;51.458;7.000;2024-02-14T13:44:41;12.90;99.90
37974;DHT22;23796;51.458;7.000;2024-02-14T13:47:08;12.90;99.90
37974;DHT22;23796;51.458;7.000;2024-02-14T13:49:34;12.90;99.90
37974;DHT22;23796;51.458;7.000;2024-02-14T13:51:59;13.00;99.90
37974;DHT22;23796;51.458;7.000;2024-02-14T13:54:27;12.90;99.90
37974;DHT22;23796;51.458;7.000;2024-02-14T13:56:55;13.00;99.90
37974;DHT22;23796;51.458;7.000;2024-02-14T13:59:21;13.00;99.90
37974;DHT22;23796;51.458;7.000;2024-02-14T14:01:47;12.90;99.90
37974;DHT22;23796;51.458;7.000;2024-02-14T14:04:13;12.90;99.90
37974;DHT22;23796;51.458;7.000;2024-02-14T14:06:38;12.90;99.90
37974;DHT22;23796;51.458;7.000;2024-02-14T14:09:05;12.90;99.90
37974;DHT22;23796;51.458;7.000;2024-02-14T14:11:33;12.90;99.90
37974;DHT22;23796;51.458;7.000;2024-02-14T14:13:59;12.90;99.90
37974;DHT22;23796;51.458;7.000;2024-02-14T14:16:28;12.90;99.90
37974;DHT22;23796;51.458;7.000;2024-02-14T14:18:53;13.00;99.90
37974;DHT22;23796;51.458;7.000;2024-02-14T14:21:19;13.00;99.90
37974;DHT22;23796;51.458;7.000;2024-02-14T14:23:44;13.00;99.90
37974;DHT22;23796;51.458;7.000;2024-02-14T14:26:12;13.00;99.90
37974;DHT22;23796;51.458;7.000;2024-02-14T14:28:39;13.10;99.90
37974;DHT22;23796;51.458;7.000;2024-02-14T14:31:04;13.00;99.90
37974;DHT22;23796;51.458;7.000;2024-02-14T14:33:30;13.00;99.90
37974;DHT22;23796;51.458;7.000;2024-02-14T14:35:56;12.90;99.90
37974;DHT22;23796;51.458;7.000;2024-02-14T14:38:21;12.90;99.90
37974;DHT22;23796;51.458;7.000;2024-02-14T14:40:47;12.90;99.90
37974;DHT22;23796;51.458;7.000;2024-02-14T14:43:15;12.90;99.90
37974;DHT22;23796;51.458;7.000;2024-02-14T14:45:44;12.90;99.90
37974;DHT22;23796;51.458;7.000;2024-02-14T14:48:10;12.80;99.90
37974;DHT22;23796;51.458;7.000;2024-02-14T14:50:36;12.80;99.90
37974;DHT22;23796;51.458;7.000;2024-02-14T14:53:02;12.80;99.90
37974;DHT22;23796;51.458;7.000;2024-02-14T14:58:16;12.70;99.90
37974;DHT22;23796;51.458;7.000;2024-02-14T15:00:42;12.70;99.90
37974;DHT22;23796;51.458;7.000;2024-02-14T15:03:08;12.70;99.90
37974;DHT22;23796;51.458;7.000;2024-02-14T15:05:34;12.60;99.90
37974;DHT22;23796;51.458;7.000;2024-02-14T15:07:59;12.60;99.90
37974;DHT22;23796;51.458;7.000;2024-02-14T15:10:27;12.60;99.90
37974;DHT22;23796;51.458;7.000;2024-02-14T15:12:53;12.60;99.90
37974;DHT22;23796;51.458;7.000;2024-02-14T15:15:20;12.50;99.90
37974;DHT22;23796;51.458;7.000;2024-02-14T15:17:46;12.60;99.90
37974;DHT22;23796;51.458;7.000;2024-02-14T15:20:12;12.60;99.90
37974;DHT22;23796;51.458;7.000;2024-02-14T15:22:37;12.60;99.90
37974;DHT22;23796;51.458;7.000;2024-02-14T15:25:04;12.50;99.90
37974;DHT22;23796;51.458;7.000;2024-02-14T15:27:32;12.50;99.90
37974;DHT22;23796;51.458;7.000;2024-02-14T15:29:58;12.40;99.90
37974;DHT22;23796;51.458;7.000;2024-02-14T15:32:42;12.40;99.90
37974;DHT22;23796;51.458;7.000;2024-02-14T15:35:26;12.40;99.90
37974;DHT22;23796;51.458;7.000;2024-02-14T15:37:52;12.40;99.90
37974;DHT22;23796;51.458;7.000;2024-02-14T15:40:19;12.30;99.90